Route Details

Aircraft Information
Group: European Fleet
Types: A30F, A31F, B738
Route Data
Distance: 612nm
Duration: 2h 00m
Origin METAR: LEBL 160130Z 34003KT 9999 SCT038 24/20 Q1009 NOSIG
Dest. METAR: EDDK 160120Z AUTO 13003KT 100V160 CAVOK 19/14 Q1008 NOSIG
Freight Data
(for Aug 16, 2022)
Load Factor:
49%
Manifested Cargo: 36,345lbs
Financial History
Total Freight: 91,022lbs
Average Load: 0lbs/flt
Fuel Used: 60,808lbs
Avg. Fuel Used: 0lbs/flt
Fuel Expense: $23,630
Avg. Fuel Expense: $0
Avg. Fuel Cost: $0/lbs
Total Gross Income: $204,051
Pilot Pay: $787
Total Expenses: $41,726
Total Revenue: $136,650
Average Revenue: $0

Capitol Logistics 502




LEBL
Barcelona International Airport
Barcelona, ES
EDDK
Cologne Bonn Airport
Cologne, DE